Time;durP1;ratioP1;P1;durP2;ratioP2;P2;SDS_P1;SDS_P2;PMS_P1;PMS_P2;Temp;Humidity;BMP_temperature;BMP_pressure;BME280_temperature;BME280_humidity;BME280_pressure;Samples;Min_cycle;Max_cycle;Signal;HPM_P1;HPM_P2
2022/07/16 00:02:09;;;;;;;12.00;3.10;;;;;;;23.92;52.30;99144.12;25092;1317;3051876;-65
2022/07/16 00:04:38;;;;;;;9.30;3.30;;;;;;;23.90;52.19;99145.66;25076;1318;3026556;-69
2022/07/16 00:07:08;;;;;;;5.30;2.90;;;;;;;23.88;52.13;99139.05;25050;1318;3071061;-69
2022/07/16 00:09:37;;;;;;;7.30;3.00;;;;;;;23.84;52.71;99138.30;25071;1318;3026857;-68
2022/07/16 00:12:07;;;;;;;6.60;3.20;;;;;;;23.84;52.47;99136.83;25118;1318;3028869;-70
2022/07/16 00:14:37;;;;;;;6.20;3.60;;;;;;;23.81;52.75;99135.58;25059;1318;3027027;-67
2022/07/16 00:17:06;;;;;;;6.20;2.90;;;;;;;23.80;52.92;99134.33;25069;1318;3029061;-68
2022/07/16 00:19:35;;;;;;;9.40;3.00;;;;;;;23.80;52.77;99131.96;25061;1317;3053850;-67
2022/07/16 00:22:04;;;;;;;7.20;3.50;;;;;;;23.81;52.71;99131.98;25079;1316;3026901;-69
2022/07/16 00:24:33;;;;;;;10.80;4.30;;;;;;;23.80;52.86;99128.92;25102;1318;3051707;-68
2022/07/16 00:27:02;;;;;;;14.20;6.60;;;;;;;23.79;52.82;99127.26;25090;1318;3026355;-68
2022/07/16 00:29:32;;;;;;;13.80;6.70;;;;;;;23.78;52.89;99125.60;25043;1315;3067526;-69
2022/07/16 00:32:01;;;;;;;15.60;7.30;;;;;;;23.78;52.82;99120.57;25125;1318;3028428;-67
2022/07/16 00:34:29;;;;;;;18.70;7.60;;;;;;;23.78;52.88;99122.02;25029;1318;3050875;-68
2022/07/16 00:36:59;;;;;;;13.80;6.70;;;;;;;23.76;52.95;99122.77;25085;1318;3025971;-68
2022/07/16 00:39:28;;;;;;;15.40;6.70;;;;;;;23.77;52.97;99124.93;25066;1318;3055019;-70
2022/07/16 00:41:57;;;;;;;11.10;5.80;;;;;;;23.79;52.88;99122.06;25058;1317;3026321;-67
2022/07/16 00:44:26;;;;;;;10.50;5.30;;;;;;;23.79;52.93;99126.64;25048;1318;3051116;-65
2022/07/16 00:46:55;;;;;;;10.20;5.20;;;;;;;23.81;52.84;99121.30;25105;1316;3026991;-68
2022/07/16 00:49:25;;;;;;;9.50;5.20;;;;;;;23.82;53.03;99118.55;25078;1317;3026593;-70
2022/07/16 00:51:54;;;;;;;8.80;5.00;;;;;;;23.83;52.85;99122.32;25136;1317;3028682;-67
2022/07/16 00:54:23;;;;;;;12.00;4.50;;;;;;;23.85;52.80;99122.39;25070;1316;3055270;-68
2022/07/16 00:56:52;;;;;;;11.40;4.70;;;;;;;23.84;52.81;99120.16;25068;1318;3026704;-68
2022/07/16 00:59:21;;;;;;;12.30;6.00;;;;;;;23.81;53.18;99124.80;25119;1318;3050855;-68
2022/07/16 01:01:50;;;;;;;13.50;7.20;;;;;;;23.78;53.33;99123.25;25071;1318;3026612;-65
2022/07/16 01:04:19;;;;;;;11.50;7.20;;;;;;;23.62;54.61;99125.21;25151;1316;3059800;-67
2022/07/16 01:06:48;;;;;;;13.20;6.80;;;;;;;23.41;55.87;99128.25;25010;1316;3026578;-67
2022/07/16 01:09:17;;;;;;;9.60;6.50;;;;;;;23.18;56.58;99131.00;25088;1316;3054560;-69
2022/07/16 01:11:46;;;;;;;9.30;5.30;;;;;;;23.05;57.61;99133.41;25042;1318;3028521;-67
2022/07/16 01:14:15;;;;;;;8.10;4.80;;;;;;;22.87;58.31;99137.76;25106;1318;3051765;-68
2022/07/16 01:16:46;;;;;;;6.80;5.20;;;;;;;22.77;59.01;99136.42;25067;1318;3027210;-68
2022/07/16 01:19:15;;;;;;;13.20;5.10;;;;;;;22.65;59.61;99137.54;25073;1316;3026841;-70
2022/07/16 01:21:45;;;;;;;6.30;4.80;;;;;;;22.55;59.97;99139.14;25110;1317;3052161;-67
2022/07/16 01:24:14;;;;;;;5.30;4.30;;;;;;;22.52;60.39;99136.53;25043;1318;3026869;-66
2022/07/16 01:26:43;;;;;;;8.10;4.60;;;;;;;22.41;61.10;99148.14;25069;1318;3050614;-67
2022/07/16 01:29:13;;;;;;;8.80;4.00;;;;;;;22.23;61.85;99148.23;25125;1318;3027587;-68
2022/07/16 01:31:43;;;;;;;8.40;4.10;;;;;;;22.23;61.81;99148.23;25101;1318;3026566;-66
2022/07/16 01:34:27;;;;;;;6.60;4.00;;;;;;;22.19;61.66;99149.73;25079;1316;3028062;-68
2022/07/16 01:36:58;;;;;;;6.90;4.30;;;;;;;22.17;61.81;99150.80;25099;1317;3055680;-68
2022/07/16 01:39:28;;;;;;;6.90;4.30;;;;;;;22.10;62.07;99151.21;25092;1317;3026665;-68
2022/07/16 01:41:59;;;;;;;7.00;4.60;;;;;;;22.01;62.53;99155.20;25000;1317;3026970;-69
2022/07/16 01:44:29;;;;;;;8.50;4.00;;;;;;;21.92;62.74;99159.73;24965;1317;3026937;-66
2022/07/16 01:46:59;;;;;;;6.50;4.20;;;;;;;21.93;63.03;99155.00;25059;1316;3029562;-70
2022/07/16 01:49:32;;;;;;;11.30;4.20;;;;;;;21.88;63.25;99157.30;25119;1317;3026917;-67
2022/07/16 01:52:09;;;;;;;10.60;4.10;;;;;;;21.85;63.44;99162.15;25066;1318;3027263;-68
2022/07/16 01:54:42;;;;;;;7.50;4.20;;;;;;;21.75;64.23;99166.40;25129;1317;3047729;-66
2022/07/16 01:57:15;;;;;;;11.30;4.70;;;;;;;21.67;64.74;99163.26;25087;1317;3054655;-66
2022/07/16 01:59:44;;;;;;;6.80;3.90;;;;;;;21.71;65.33;99165.15;25085;1317;3026446;-67
2022/07/16 02:02:14;;;;;;;13.10;4.60;;;;;;;22.08;64.81;99168.27;25120;1317;3050626;-70
2022/07/16 02:04:44;;;;;;;9.20;4.40;;;;;;;22.16;64.71;99168.59;25037;1317;3026348;-65
2022/07/16 02:07:13;;;;;;;10.70;4.00;;;;;;;22.15;64.84;99172.68;25002;1317;3026200;-69
2022/07/16 02:09:43;;;;;;;6.70;4.70;;;;;;;21.98;65.66;99172.94;25026;1316;3048640;-67
2022/07/16 02:12:13;;;;;;;4.60;3.70;;;;;;;21.55;67.84;99182.23;24992;1317;3026947;-69
2022/07/16 02:14:42;;;;;;;7.50;4.10;;;;;;;21.23;69.68;99182.50;25043;1317;3026267;-67
2022/07/16 02:17:12;;;;;;;8.60;3.80;;;;;;;21.07;70.72;99186.35;25053;1316;3048382;-69
2022/07/16 02:19:43;;;;;;;6.60;3.30;;;;;;;21.04;71.33;99188.83;25100;1316;3026573;-65
2022/07/16 02:22:12;;;;;;;5.40;3.80;;;;;;;21.47;69.99;99188.62;24988;1317;3027781;-67
2022/07/16 02:24:41;;;;;;;7.70;3.80;;;;;;;21.60;69.64;99187.13;24988;1318;3051468;-67
2022/07/16 02:27:10;;;;;;;8.60;4.00;;;;;;;21.62;69.33;99185.33;25073;1316;3026387;-67
2022/07/16 02:29:39;;;;;;;6.90;4.20;;;;;;;21.48;69.83;99185.31;25089;1316;3028339;-68
2022/07/16 02:32:10;;;;;;;8.70;4.10;;;;;;;21.42;69.96;99187.02;25083;1318;3048634;-70
2022/07/16 02:34:39;;;;;;;6.60;4.30;;;;;;;21.28;70.47;99187.34;25062;1316;3026359;-67
2022/07/16 02:37:08;;;;;;;6.20;3.40;;;;;;;21.14;71.25;99188.23;25083;1318;3069057;-64
2022/07/16 02:39:38;;;;;;;4.80;3.60;;;;;;;21.58;69.71;99188.23;25044;1317;3027344;-64
2022/07/16 02:42:06;;;;;;;5.00;3.40;;;;;;;21.72;69.08;99190.89;25034;1318;3026860;-66
2022/07/16 02:44:35;;;;;;;6.10;4.00;;;;;;;21.64;69.26;99192.78;25058;1316;3070171;-66
2022/07/16 02:47:05;;;;;;;4.90;3.60;;;;;;;21.49;69.99;99196.77;25052;1315;3026376;-65
2022/07/16 02:49:34;;;;;;;6.20;4.10;;;;;;;21.30;70.98;99193.81;25057;1318;3052816;-66
2022/07/16 02:52:03;;;;;;;6.80;4.50;;;;;;;21.13;71.88;99188.23;25061;1318;3026556;-65
2022/07/16 02:54:32;;;;;;;4.20;3.00;;;;;;;21.13;72.24;99189.15;25042;1317;3054787;-66
2022/07/16 02:57:01;;;;;;;9.60;4.20;;;;;;;21.60;70.71;99188.04;25126;1315;3026986;-64
2022/07/16 02:59:30;;;;;;;5.60;4.30;;;;;;;21.75;70.16;99193.73;25049;1318;3051235;-64
2022/07/16 03:01:59;;;;;;;6.50;4.20;;;;;;;21.78;69.85;99197.48;25001;1317;3027020;-66
2022/07/16 03:04:28;;;;;;;7.60;4.40;;;;;;;21.68;70.27;99198.41;25039;1318;3056168;-64
2022/07/16 03:06:58;;;;;;;7.20;5.10;;;;;;;21.48;71.23;99196.86;25033;1318;3026424;-66
2022/07/16 03:09:27;;;;;;;5.60;4.50;;;;;;;21.37;71.71;99195.58;25120;1318;3026383;-64
2022/07/16 03:11:56;;;;;;;8.90;3.40;;;;;;;21.21;72.70;99203.02;25066;1315;3058261;-65
2022/07/16 03:14:25;;;;;;;6.30;4.10;;;;;;;21.67;71.54;99204.09;25101;1315;3027387;-65
2022/07/16 03:16:54;;;;;;;7.60;4.20;;;;;;;21.95;70.22;99200.48;25048;1318;3052330;-65
2022/07/16 03:19:23;;;;;;;7.90;4.30;;;;;;;21.93;70.43;99205.29;25025;1318;3026310;-64
2022/07/16 03:21:53;;;;;;;7.90;5.00;;;;;;;21.76;70.97;99207.52;25060;1318;3053938;-64
2022/07/16 03:24:23;;;;;;;7.10;5.10;;;;;;;21.49;72.47;99216.05;25065;1318;3029389;-66
2022/07/16 03:26:52;;;;;;;9.40;4.90;;;;;;;21.32;73.36;99213.42;25036;1317;3051252;-65
2022/07/16 03:29:21;;;;;;;4.40;3.50;;;;;;;21.21;74.37;99217.13;25074;1318;3026846;-66
2022/07/16 03:31:50;;;;;;;6.60;4.80;;;;;;;21.57;72.94;99209.95;25080;1316;3026911;-66
2022/07/16 03:34:19;;;;;;;7.00;4.10;;;;;;;21.79;72.21;99211.41;25122;1318;3048858;-65
2022/07/16 03:36:48;;;;;;;6.20;4.70;;;;;;;21.74;72.33;99212.59;25073;1318;3026311;-65
2022/07/16 03:39:17;;;;;;;6.00;4.80;;;;;;;21.53;73.45;99212.55;25078;1317;3071055;-66
2022/07/16 03:41:46;;;;;;;8.00;5.30;;;;;;;21.39;74.00;99214.91;25062;1316;3027670;-66
2022/07/16 03:44:15;;;;;;;6.00;4.00;;;;;;;21.09;75.76;99220.67;25016;1318;3054519;-66
2022/07/16 03:46:45;;;;;;;6.20;4.20;;;;;;;21.34;75.49;99223.04;25069;1316;3026330;-66
2022/07/16 03:49:15;;;;;;;7.80;5.20;;;;;;;21.46;74.75;99223.39;25122;1318;3028613;-66
2022/07/16 03:51:44;;;;;;;6.80;5.30;;;;;;;21.41;74.81;99220.20;25123;1318;3028100;-66
2022/07/16 03:54:13;;;;;;;7.90;5.20;;;;;;;21.20;75.71;99229.50;25105;1318;3070780;-65
2022/07/16 03:56:42;;;;;;;7.40;4.20;;;;;;;21.09;76.17;99232.27;25078;1318;3026915;-66
2022/07/16 03:59:11;;;;;;;9.30;5.10;;;;;;;21.44;74.99;99231.91;25053;1318;3026744;-65
2022/07/16 04:01:40;;;;;;;8.60;5.00;;;;;;;21.63;74.13;99224.78;25129;1318;3068180;-63
2022/07/16 04:04:09;;;;;;;11.80;5.40;;;;;;;21.48;74.55;99233.94;25545;1316;3026473;-64
2022/07/16 04:06:38;;;;;;;13.90;5.40;;;;;;;21.21;75.87;99241.81;25473;1317;3054225;-65
2022/07/16 04:09:08;;;;;;;8.30;4.70;;;;;;;21.12;76.58;99241.05;25409;1316;3026793;-67
2022/07/16 04:11:37;;;;;;;5.80;4.30;;;;;;;21.41;75.59;99245.33;25136;1315;3026134;-65
2022/07/16 04:14:06;;;;;;;7.80;5.10;;;;;;;21.69;74.44;99243.95;25060;1318;3052783;-66
2022/07/16 04:16:35;;;;;;;8.10;5.60;;;;;;;21.48;75.10;99248.34;25094;1318;3029342;-66
2022/07/16 04:19:04;;;;;;;8.80;5.90;;;;;;;21.18;76.55;99249.77;25054;1316;3052683;-64
2022/07/16 04:21:34;;;;;;;7.70;6.20;;;;;;;20.98;77.42;99253.43;25087;1316;3028744;-66
2022/07/16 04:24:03;;;;;;;6.20;4.40;;;;;;;20.98;77.88;99252.31;25085;1318;3026626;-66
2022/07/16 04:26:32;;;;;;;9.10;5.10;;;;;;;21.62;75.69;99250.86;25057;1318;3055221;-66
2022/07/16 04:29:01;;;;;;;7.70;5.00;;;;;;;21.77;74.55;99254.23;25107;1318;3028545;-67
2022/07/16 04:31:31;;;;;;;10.00;5.70;;;;;;;21.65;75.18;99250.27;25068;1318;3052573;-65
2022/07/16 04:34:00;;;;;;;11.30;5.70;;;;;;;21.51;75.52;99257.86;25059;1317;3026534;-65
2022/07/16 04:36:30;;;;;;;7.10;5.90;;;;;;;21.23;76.68;99258.83;25105;1318;3058098;-66
2022/07/16 04:38:59;;;;;;;8.10;4.40;;;;;;;21.21;76.88;99258.61;25114;1318;3026566;-64
2022/07/16 04:41:28;;;;;;;12.10;6.60;;;;;;;21.67;75.34;99263.94;25088;1318;3026335;-65
2022/07/16 04:43:57;;;;;;;9.50;5.60;;;;;;;21.84;74.29;99263.88;25005;1319;3054817;-65
2022/07/16 04:46:26;;;;;;;9.10;5.40;;;;;;;21.81;74.07;99269.32;25039;1317;3026815;-66
2022/07/16 04:48:55;;;;;;;9.60;6.10;;;;;;;21.62;74.87;99275.73;25038;1318;3054341;-65
2022/07/16 04:51:24;;;;;;;9.10;6.30;;;;;;;21.36;75.93;99276.04;25043;1318;3026996;-65
2022/07/16 04:53:54;;;;;;;7.30;5.40;;;;;;;21.28;76.57;99278.27;25060;1316;3054600;-66
2022/07/16 04:56:23;;;;;;;11.90;6.40;;;;;;;21.64;75.74;99278.21;25093;1318;3026488;-68
2022/07/16 04:58:52;;;;;;;8.90;6.00;;;;;;;21.80;74.92;99281.92;25088;1318;3051226;-67
2022/07/16 05:01:21;;;;;;;9.60;7.50;;;;;;;21.70;75.05;99286.13;25125;1318;3027062;-67
2022/07/16 05:03:50;;;;;;;8.80;7.90;;;;;;;21.27;76.76;99290.86;25061;1318;3071542;-65
2022/07/16 05:06:19;;;;;;;10.70;7.40;;;;;;;21.05;78.02;99291.45;25113;1317;3026291;-66
2022/07/16 05:08:48;;;;;;;8.30;6.60;;;;;;;21.05;78.29;99290.75;25052;1318;3051861;-65
2022/07/16 05:11:23;;;;;;;12.80;8.80;;;;;;;21.41;77.06;99285.96;25119;1316;3071724;-65
2022/07/16 05:13:55;;;;;;;13.10;8.60;;;;;;;21.61;75.79;99286.83;25064;1318;3028309;-63
2022/07/16 05:16:30;;;;;;;14.80;9.40;;;;;;;21.39;76.46;99291.90;25092;1318;3052053;-65
2022/07/16 05:18:59;;;;;;;11.80;9.90;;;;;;;21.12;77.72;99297.44;25093;1316;3028186;-64
2022/07/16 05:21:28;;;;;;;11.70;10.20;;;;;;;20.94;78.94;99295.32;25068;1318;3055339;-67
2022/07/16 05:23:57;;;;;;;13.90;11.60;;;;;;;21.11;78.55;99293.33;25108;1318;3026705;-66
2022/07/16 05:26:29;;;;;;;15.70;12.90;;;;;;;21.21;77.96;99288.35;25076;1316;3029919;-65
2022/07/16 05:28:58;;;;;;;16.40;13.30;;;;;;;21.14;78.19;99290.84;25093;1319;3027803;-68
2022/07/16 05:31:28;;;;;;;15.60;13.10;;;;;;;20.95;79.01;99287.66;25049;1318;3053768;-66
2022/07/16 05:33:57;;;;;;;10.30;8.30;;;;;;;20.91;79.61;99290.26;25122;1318;3027015;-65
2022/07/16 05:36:26;;;;;;;14.70;10.90;;;;;;;21.34;77.85;99286.89;25070;1316;3053413;-64
2022/07/16 05:38:56;;;;;;;13.30;10.90;;;;;;;21.32;77.66;99293.00;24737;1318;3488966;-67
2022/07/16 05:41:26;;;;;;;13.40;11.80;;;;;;;21.05;78.59;99297.09;25070;1318;3026645;-67
2022/07/16 05:43:57;;;;;;;12.10;10.70;;;;;;;20.79;79.48;99295.25;25090;1318;3026581;-68
2022/07/16 05:46:26;;;;;;;14.50;10.60;;;;;;;20.74;80.12;99292.79;25088;1317;3026841;-67
2022/07/16 05:48:55;;;;;;;13.90;12.10;;;;;;;21.07;78.97;99297.96;25109;1318;3028426;-63
2022/07/16 05:51:25;;;;;;;15.40;13.50;;;;;;;21.24;77.77;99301.85;25059;1319;3050653;-66
2022/07/16 05:53:54;;;;;;;18.20;14.80;;;;;;;21.14;78.28;99301.00;25082;1318;3026692;-66
2022/07/16 05:56:25;;;;;;;16.00;14.10;;;;;;;21.00;78.73;99298.06;25128;1318;3026784;-67
2022/07/16 05:58:55;;;;;;;16.20;13.10;;;;;;;21.00;78.69;99300.23;25094;1316;3026826;-66
2022/07/16 06:01:24;;;;;;;19.60;17.50;;;;;;;21.25;77.93;99304.86;25077;1318;3054375;-66
2022/07/16 06:03:53;;;;;;;17.40;15.10;;;;;;;21.30;77.66;99301.38;25105;1316;3026331;-66
2022/07/16 06:06:23;;;;;;;17.60;13.70;;;;;;;21.24;77.87;99295.63;25070;1320;3050117;-66
2022/07/16 06:08:51;;;;;;;20.90;13.70;;;;;;;21.10;78.28;99298.94;25097;1318;3026167;-66
2022/07/16 06:11:22;;;;;;;14.20;11.40;;;;;;;20.93;78.91;99291.09;25079;1318;3068871;-65
2022/07/16 06:13:51;;;;;;;14.00;12.50;;;;;;;21.34;77.57;99282.62;25076;1318;3026713;-66
2022/07/16 06:16:22;;;;;;;15.50;12.30;;;;;;;21.40;76.84;99287.20;25088;1318;3027130;-67
2022/07/16 06:18:51;;;;;;;25.60;14.80;;;;;;;21.21;77.61;99292.90;25101;1318;3066909;-67
2022/07/16 06:21:20;;;;;;;21.90;14.70;;;;;;;21.01;78.28;99300.82;25063;1318;3026477;-66
2022/07/16 06:23:49;;;;;;;16.90;12.30;;;;;;;20.83;79.40;99300.79;25094;1316;3051210;-66
2022/07/16 06:26:18;;;;;;;19.20;13.80;;;;;;;21.07;78.74;99292.13;25074;1318;3026370;-66
2022/07/16 06:28:47;;;;;;;18.10;14.90;;;;;;;21.20;78.01;99296.48;25106;1319;3055211;-67
2022/07/16 06:31:16;;;;;;;17.80;14.70;;;;;;;21.14;77.99;99293.49;25065;1318;3027022;-68
2022/07/16 06:33:45;;;;;;;24.90;13.70;;;;;;;20.86;79.20;99296.69;25092;1319;3052150;-67
2022/07/16 06:36:14;;;;;;;12.80;11.30;;;;;;;20.84;79.48;99298.46;25087;1316;3026115;-66
2022/07/16 06:38:44;;;;;;;16.00;13.40;;;;;;;21.14;78.02;99292.77;25064;1318;3059130;-65
2022/07/16 06:41:16;;;;;;;18.40;13.30;;;;;;;21.26;77.33;99293.30;25087;1318;3026490;-66
2022/07/16 06:43:45;;;;;;;19.40;14.20;;;;;;;21.30;77.26;99296.81;25051;1318;3052686;-68
2022/07/16 06:46:14;;;;;;;21.00;14.40;;;;;;;21.28;77.36;99303.20;25118;1317;3026636;-67
2022/07/16 06:48:43;;;;;;;17.40;11.10;;;;;;;21.16;77.97;99307.39;25081;1318;3026858;-65
2022/07/16 06:51:15;;;;;;;18.60;12.30;;;;;;;21.71;76.24;99302.28;25075;1316;3052442;-63
2022/07/16 06:53:44;;;;;;;16.70;12.10;;;;;;;22.16;74.15;99309.55;25083;1318;3028589;-66
2022/07/16 06:56:13;;;;;;;17.50;13.80;;;;;;;22.08;73.86;99314.48;25103;1318;3051445;-66
2022/07/16 06:58:43;;;;;;;17.30;13.60;;;;;;;21.98;74.22;99318.30;25118;1321;3026625;-67
2022/07/16 07:01:11;;;;;;;17.60;13.80;;;;;;;21.90;74.57;99318.51;25094;1318;3026717;-65
2022/07/16 07:03:41;;;;;;;14.10;11.10;;;;;;;21.86;74.52;99321.97;25092;1316;3050958;-66
2022/07/16 07:06:10;;;;;;;17.00;12.50;;;;;;;22.22;73.45;99322.71;25056;1316;3027316;-66
2022/07/16 07:08:41;;;;;;;14.10;11.70;;;;;;;22.62;71.57;99321.50;25122;1318;3026789;-66
2022/07/16 07:11:10;;;;;;;14.80;11.90;;;;;;;22.72;71.04;99320.56;25082;1316;3027099;-67
2022/07/16 07:13:39;;;;;;;13.80;12.40;;;;;;;22.69;70.86;99316.67;25119;1316;3028602;-67
2022/07/16 07:16:09;;;;;;;15.60;12.90;;;;;;;22.51;71.22;99316.11;25108;1318;3057756;-65
2022/07/16 07:18:39;;;;;;;18.10;12.50;;;;;;;22.44;71.38;99316.20;25061;1318;3027908;-66
2022/07/16 07:21:08;;;;;;;11.20;9.40;;;;;;;22.32;72.44;99320.62;25110;1317;3026462;-66
2022/07/16 07:23:37;;;;;;;20.50;11.60;;;;;;;22.69;71.81;99326.02;25120;1318;3060128;-66
2022/07/16 07:26:06;;;;;;;15.50;12.00;;;;;;;22.99;70.85;99328.85;25069;1318;3026730;-64
2022/07/16 07:28:35;;;;;;;14.80;12.50;;;;;;;23.03;70.60;99331.87;25087;1318;3028836;-65
2022/07/16 07:31:05;;;;;;;19.40;13.10;;;;;;;22.76;72.02;99329.77;25089;1318;3057804;-67
2022/07/16 07:33:35;;;;;;;16.30;13.60;;;;;;;22.62;72.88;99327.56;25068;1316;3029647;-66
2022/07/16 07:36:04;;;;;;;23.80;13.80;;;;;;;22.56;72.97;99331.85;25013;1317;3051927;-64
2022/07/16 07:38:33;;;;;;;11.20;9.20;;;;;;;22.36;73.60;99337.04;25115;1315;3026697;-66
2022/07/16 07:41:03;;;;;;;18.70;11.70;;;;;;;22.67;72.41;99333.84;25070;1320;3026744;-66
2022/07/16 07:43:31;;;;;;;15.50;11.80;;;;;;;22.88;71.63;99334.29;25100;1317;3026639;-64
2022/07/16 07:46:01;;;;;;;14.80;11.80;;;;;;;22.89;71.23;99338.23;25128;1318;3058677;-68
2022/07/16 07:48:33;;;;;;;19.50;12.90;;;;;;;22.67;71.93;99345.59;25098;1317;3026666;-67
2022/07/16 07:51:03;;;;;;;16.60;13.40;;;;;;;22.33;73.10;99344.19;25081;1318;3028523;-67
2022/07/16 07:53:34;;;;;;;19.80;14.10;;;;;;;22.00;74.62;99342.96;25111;1318;3056490;-64
2022/07/16 07:56:04;;;;;;;14.70;11.80;;;;;;;21.97;74.58;99341.77;25084;1318;3026924;-65
2022/07/16 07:58:34;;;;;;;14.50;12.10;;;;;;;22.36;73.60;99340.19;25096;1318;3030054;-65
2022/07/16 08:01:04;;;;;;;17.60;13.30;;;;;;;22.58;72.51;99339.20;25098;1318;3026487;-67
2022/07/16 08:03:33;;;;;;;17.40;14.20;;;;;;;22.41;73.13;99338.00;25113;1318;3028665;-67
2022/07/16 08:06:02;;;;;;;21.10;14.80;;;;;;;22.16;73.76;99338.55;25079;1316;3035218;-65
2022/07/16 08:08:32;;;;;;;19.20;14.60;;;;;;;21.97;74.58;99343.73;25009;1318;3053702;-65
2022/07/16 08:11:02;;;;;;;16.60;13.30;;;;;;;21.92;75.17;99344.45;25067;1318;3026651;-64
2022/07/16 08:13:31;;;;;;;17.40;10.80;;;;;;;21.89;75.00;99342.85;25024;1316;3026574;-66
2022/07/16 08:16:01;;;;;;;14.90;12.00;;;;;;;22.36;73.91;99335.52;25151;1318;3051536;-67
2022/07/16 08:18:30;;;;;;;15.10;13.50;;;;;;;22.80;72.02;99337.02;25208;1318;3026087;-66
2022/07/16 08:20:59;;;;;;;15.50;13.20;;;;;;;22.93;71.55;99330.31;25605;1316;3052519;-66
2022/07/16 08:26:16;;;;;;;19.50;15.80;;;;;;;22.72;71.96;99335.27;25327;1318;3050116;-67
2022/07/16 08:28:45;;;;;;;19.30;15.50;;;;;;;22.52;72.74;99335.31;25157;1315;3027585;-67
2022/07/16 08:31:14;;;;;;;13.20;10.90;;;;;;;22.36;73.76;99332.61;25107;1318;3055995;-66
2022/07/16 08:33:43;;;;;;;17.50;13.90;;;;;;;22.99;71.81;99325.33;25104;1318;3026479;-66
2022/07/16 08:36:12;;;;;;;17.30;12.80;;;;;;;23.49;69.72;99326.04;25085;1316;3026413;-69
2022/07/16 08:38:41;;;;;;;18.50;13.20;;;;;;;23.57;68.91;99324.69;25073;1316;3058736;-66
2022/07/16 08:41:11;;;;;;;16.20;13.50;;;;;;;23.44;68.28;99332.84;25043;1318;3026658;-65
2022/07/16 08:43:40;;;;;;;16.70;13.70;;;;;;;23.35;68.83;99337.66;25083;1318;3026574;-66
2022/07/16 08:46:10;;;;;;;16.10;14.50;;;;;;;23.31;69.01;99335.05;25076;1317;3055828;-64
2022/07/16 08:48:39;;;;;;;15.80;13.50;;;;;;;23.16;69.04;99336.30;25124;1318;3027501;-67
2022/07/16 08:51:09;;;;;;;12.80;9.60;;;;;;;23.04;69.82;99331.48;25080;1316;3028491;-67
2022/07/16 08:53:38;;;;;;;13.60;11.50;;;;;;;23.37;67.70;99327.56;25089;1318;3058918;-66
2022/07/16 08:56:07;;;;;;;14.40;11.70;;;;;;;23.77;66.37;99323.23;25072;1318;3029554;-65
2022/07/16 08:58:36;;;;;;;18.10;13.50;;;;;;;23.71;66.07;99326.11;25076;1318;3054285;-68
2022/07/16 09:01:06;;;;;;;15.90;14.20;;;;;;;23.41;67.18;99324.09;25135;1318;3026864;-69
2022/07/16 09:03:34;;;;;;;18.40;13.90;;;;;;;23.01;68.66;99331.50;25084;1316;3051925;-68
2022/07/16 09:06:04;;;;;;;17.10;13.80;;;;;;;22.98;68.67;99327.94;25083;1318;3026776;-68
2022/07/16 09:08:33;;;;;;;18.30;14.90;;;;;;;22.76;69.67;99331.68;25034;1316;3048904;-67
2022/07/16 09:11:25;;;;;;;18.90;14.10;;;;;;;22.72;69.70;99329.50;25124;1316;3026485;-64
2022/07/16 09:14:08;;;;;;;14.90;11.90;;;;;;;22.77;68.91;99325.72;25054;1318;3070258;-66
2022/07/16 09:16:49;;;;;;;17.70;12.70;;;;;;;23.20;67.42;99325.36;25115;1316;3049639;-65
2022/07/16 09:19:22;;;;;;;16.40;13.00;;;;;;;23.44;66.62;99321.79;25129;1316;3053321;-67
2022/07/16 09:22:06;;;;;;;15.90;12.90;;;;;;;23.45;65.65;99318.75;25118;1318;3051719;-65
2022/07/16 09:24:42;;;;;;;13.40;12.00;;;;;;;23.62;65.53;99309.87;25083;1318;3056122;-65
2022/07/16 09:27:13;;;;;;;18.50;12.40;;;;;;;23.43;65.12;99310.83;25115;1315;3050300;-65
2022/07/16 09:29:53;;;;;;;13.40;11.70;;;;;;;23.26;65.93;99310.06;25119;1319;3026369;-68
2022/07/16 09:32:27;;;;;;;15.20;12.40;;;;;;;23.22;66.02;99307.70;25116;1319;3049953;-68
2022/07/16 09:35:15;;;;;;;18.40;12.90;;;;;;;23.26;66.20;99310.07;25079;1318;3068889;-67
2022/07/16 09:37:59;;;;;;;15.90;12.60;;;;;;;23.27;65.70;99316.60;25083;1318;3051793;-67
2022/07/16 09:40:43;;;;;;;17.30;12.50;;;;;;;23.37;65.38;99322.05;25091;1317;3052727;-65
2022/07/16 09:43:15;;;;;;;16.00;10.40;;;;;;;23.32;66.28;99313.14;25065;1318;3055380;-65
2022/07/16 09:45:46;;;;;;;13.40;11.30;;;;;;;23.85;64.37;99305.94;25147;1318;3026933;-65
2022/07/16 09:48:23;;;;;;;17.00;11.20;;;;;;;23.81;63.85;99303.87;25081;1317;3026765;-64
2022/07/16 09:50:54;;;;;;;15.00;11.00;;;;;;;23.47;64.36;99311.23;25103;1318;3053544;-66
2022/07/16 09:53:25;;;;;;;20.20;12.70;;;;;;;23.10;65.92;99313.58;25106;1318;3029091;-66
2022/07/16 09:56:02;;;;;;;19.70;10.90;;;;;;;23.11;65.69;99315.08;25105;1315;3026464;-67
2022/07/16 09:58:31;;;;;;;20.10;12.80;;;;;;;22.99;65.13;99307.12;25102;1316;3050986;-66
2022/07/16 10:01:01;;;;;;;13.80;11.40;;;;;;;22.91;65.82;99307.36;25117;1318;3027092;-65
2022/07/16 10:03:31;;;;;;;15.20;11.40;;;;;;;23.08;65.21;99297.31;25075;1318;3026697;-66
2022/07/16 10:05:59;;;;;;;21.60;12.30;;;;;;;23.09;65.02;99295.58;25135;1315;3026524;-67
2022/07/16 10:08:29;;;;;;;14.50;12.10;;;;;;;22.82;65.90;99298.48;25092;1318;3054653;-66
2022/07/16 10:10:58;;;;;;;17.60;12.10;;;;;;;22.71;66.87;99293.55;25038;1317;3026363;-65
2022/07/16 10:13:28;;;;;;;15.00;11.90;;;;;;;22.94;66.29;99295.19;25104;1318;3051635;-65
2022/07/16 10:15:57;;;;;;;14.20;9.30;;;;;;;23.30;65.51;99289.75;25110;1315;3026580;-65
2022/07/16 10:18:43;;;;;;;13.10;10.70;;;;;;;24.25;62.53;99287.48;25107;1316;3029064;-65
2022/07/16 10:21:16;;;;;;;15.50;11.60;;;;;;;24.66;60.68;99291.02;25071;1318;3055282;-65
2022/07/16 10:24:08;;;;;;;17.50;11.20;;;;;;;24.51;60.33;99295.84;25133;1315;3028419;-67
2022/07/16 10:26:39;;;;;;;16.20;11.00;;;;;;;24.48;60.33;99293.86;25124;1316;3055397;-67
2022/07/16 10:29:09;;;;;;;18.70;11.80;;;;;;;24.57;59.82;99293.64;25065;1317;3026956;-64
2022/07/16 10:31:41;;;;;;;16.30;11.90;;;;;;;24.50;60.02;99291.66;25112;1316;3050127;-65
2022/07/16 10:34:12;;;;;;;14.00;10.40;;;;;;;24.37;59.75;99295.58;25128;1314;3026581;-66
2022/07/16 10:36:54;;;;;;;18.20;11.60;;;;;;;24.37;60.08;99286.45;25126;1317;3026884;-66
2022/07/16 10:39:24;;;;;;;16.70;11.70;;;;;;;24.38;59.73;99289.11;25094;1314;3071518;-66
2022/07/16 10:41:55;;;;;;;15.90;11.50;;;;;;;24.21;60.31;99292.35;25135;1314;3026482;-67
2022/07/16 10:44:26;;;;;;;16.60;11.50;;;;;;;24.34;60.01;99287.65;25099;1315;3026477;-66
2022/07/16 10:47:00;;;;;;;17.40;12.30;;;;;;;24.39;60.11;99287.44;25132;1315;3026683;-65
2022/07/16 10:49:29;;;;;;;18.20;11.50;;;;;;;24.49;59.67;99283.67;25083;1315;3055297;-67
2022/07/16 10:52:20;;;;;;;21.00;13.00;;;;;;;24.78;58.97;99283.42;25071;1314;3026543;-66
2022/07/16 10:54:49;;;;;;;18.70;13.60;;;;;;;24.70;59.23;99289.98;25094;1314;3055351;-62
2022/07/16 10:57:18;;;;;;;20.00;13.60;;;;;;;24.84;59.16;99289.87;25055;1314;3027025;-67
2022/07/16 10:59:48;;;;;;;21.30;14.20;;;;;;;24.55;59.92;99290.58;25006;1318;3054741;-66
2022/07/16 11:02:17;;;;;;;22.00;13.90;;;;;;;24.55;59.80;99278.73;25131;1315;3025838;-64
2022/07/16 11:04:47;;;;;;;22.40;14.20;;;;;;;24.66;59.45;99280.80;25047;1317;3057139;-67
2022/07/16 11:07:19;;;;;;;22.20;14.30;;;;;;;24.70;59.22;99283.40;25125;1314;3027827;-66
2022/07/16 11:09:50;;;;;;;20.00;13.50;;;;;;;24.68;59.20;99282.84;25125;1314;3028162;-68
2022/07/16 11:12:25;;;;;;;18.10;13.10;;;;;;;24.61;59.12;99279.40;25109;1314;3026271;-63
2022/07/16 11:15:20;;;;;;;20.60;13.90;;;;;;;25.10;57.91;99278.98;25106;1315;3068570;-65
2022/07/16 11:17:54;;;;;;;20.10;14.70;;;;;;;25.20;57.48;99277.89;25109;1314;3026525;-65
2022/07/16 11:20:33;;;;;;;25.80;15.20;;;;;;;25.11;57.85;99275.30;25144;1314;3052035;-66
2022/07/16 11:23:28;;;;;;;;;;;;;;;25.21;57.61;99280.16;25101;1314;3055811;-67
2022/07/16 11:25:59;;;;;;;22.40;14.40;;;;;;;25.19;57.31;99282.90;25130;1314;3026505;-67
2022/07/16 11:28:28;;;;;;;21.80;14.40;;;;;;;25.25;56.99;99281.92;25109;1314;3052513;-64